createdAt,value
2018-09-15T00:01:42.288Z,19.40
2018-09-15T00:03:45.196Z,19.30
2018-09-15T00:05:48.916Z,19.20
2018-09-15T00:07:52.598Z,19.20
2018-09-15T00:09:56.289Z,19.10
2018-09-15T00:12:00.810Z,19.10
2018-09-15T00:14:03.790Z,19.10
2018-09-15T00:16:08.223Z,19.10
2018-09-15T00:18:12.035Z,19.00
2018-09-15T00:20:15.714Z,19.00
2018-09-15T00:22:18.637Z,19.00
2018-09-15T00:24:21.578Z,18.90
2018-09-15T00:26:24.602Z,18.90
2018-09-15T00:28:27.523Z,18.80
2018-09-15T00:30:30.473Z,18.80
2018-09-15T00:32:33.398Z,18.80
2018-09-15T00:34:36.346Z,18.80
2018-09-15T00:36:39.334Z,18.70
2018-09-15T00:38:42.260Z,18.70
2018-09-15T00:40:46.018Z,18.60
2018-09-15T00:42:49.083Z,18.60
2018-09-15T00:44:52.001Z,18.60
2018-09-15T00:46:54.929Z,18.60
2018-09-15T00:48:58.805Z,18.50
2018-09-15T00:51:03.224Z,18.40
2018-09-15T00:53:07.766Z,18.40
2018-09-15T00:55:11.463Z,18.40
2018-09-15T00:57:15.268Z,18.40
2018-09-15T00:59:18.945Z,18.30
2018-09-15T01:01:22.701Z,18.30
2018-09-15T01:03:25.617Z,18.30
2018-09-15T01:05:28.541Z,18.20
2018-09-15T01:07:31.559Z,18.20
2018-09-15T01:09:34.478Z,18.10
2018-09-15T01:11:38.921Z,18.00
2018-09-15T01:13:42.633Z,18.00
2018-09-15T01:15:45.557Z,18.00
2018-09-15T01:17:48.578Z,18.00
2018-09-15T01:19:52.334Z,17.90
2018-09-15T01:21:55.209Z,17.90
2018-09-15T01:23:58.121Z,17.90
2018-09-15T01:26:01.102Z,17.80
2018-09-15T01:28:04.796Z,17.80
2018-09-15T01:30:09.244Z,17.70
2018-09-15T01:32:13.047Z,17.70
2018-09-15T01:34:16.744Z,17.60
2018-09-15T01:36:20.548Z,17.60
2018-09-15T01:38:24.260Z,17.50
2018-09-15T01:40:27.172Z,17.50
2018-09-15T01:42:30.107Z,17.40
2018-09-15T01:44:34.015Z,17.30
2018-09-15T01:46:37.704Z,17.40
2018-09-15T01:48:40.893Z,17.30
2018-09-15T01:50:44.616Z,17.30
2018-09-15T01:52:47.533Z,17.30
2018-09-15T01:54:50.568Z,17.30
2018-09-15T01:56:54.489Z,17.20
2018-09-15T01:58:57.417Z,17.20
2018-09-15T02:01:00.409Z,17.20
2018-09-15T02:03:04.094Z,17.10
2018-09-15T02:05:06.994Z,17.10
2018-09-15T02:07:10.645Z,17.10
2018-09-15T02:09:13.581Z,17.10
2018-09-15T02:11:17.364Z,17.00
2018-09-15T02:13:20.245Z,17.00
2018-09-15T02:15:23.169Z,17.00
2018-09-15T02:17:26.081Z,16.90
2018-09-15T02:19:28.983Z,16.90
2018-09-15T02:21:31.869Z,16.90
2018-09-15T02:23:34.787Z,16.80
2018-09-15T02:25:37.742Z,16.80
2018-09-15T02:27:41.445Z,16.70
2018-09-15T02:29:45.113Z,16.70
2018-09-15T02:31:48.010Z,16.60
2018-09-15T02:33:51.001Z,16.60
2018-09-15T02:35:53.933Z,16.60
2018-09-15T02:37:56.820Z,16.60
2018-09-15T02:39:59.695Z,16.50
2018-09-15T02:42:02.591Z,16.50
2018-09-15T02:44:05.462Z,16.50
2018-09-15T02:46:08.384Z,16.50
2018-09-15T02:48:11.384Z,16.40
2018-09-15T02:50:15.034Z,16.40
2018-09-15T02:52:17.916Z,16.40
2018-09-15T02:54:20.812Z,16.30
2018-09-15T02:56:23.714Z,16.30
2018-09-15T02:58:26.685Z,16.30
2018-09-15T03:00:31.106Z,16.30
2018-09-15T03:02:34.801Z,16.20
2018-09-15T03:04:37.825Z,16.20
2018-09-15T03:06:41.465Z,16.20
2018-09-15T03:08:44.402Z,16.20
2018-09-15T03:10:47.451Z,16.20
2018-09-15T03:12:51.765Z,16.10
2018-09-15T03:14:55.445Z,16.10
2018-09-15T03:16:58.394Z,16.10
2018-09-15T03:19:01.277Z,16.10
2018-09-15T03:21:04.214Z,16.10
2018-09-15T03:23:07.132Z,16.00
2018-09-15T03:25:10.116Z,16.00
2018-09-15T03:27:13.749Z,15.90
2018-09-15T03:29:16.637Z,15.90
2018-09-15T03:31:19.525Z,15.90
2018-09-15T03:33:22.400Z,15.90
2018-09-15T03:35:25.396Z,15.90
2018-09-15T03:37:28.318Z,15.80
2018-09-15T03:39:32.083Z,15.80
2018-09-15T03:41:35.019Z,15.70
2018-09-15T03:43:38.640Z,15.70
2018-09-15T03:45:41.539Z,15.70
2018-09-15T03:47:44.485Z,15.70
2018-09-15T03:49:47.370Z,15.60
2018-09-15T03:51:50.253Z,15.60
2018-09-15T03:53:53.166Z,15.70
2018-09-15T03:55:56.048Z,15.60
2018-09-15T03:57:58.930Z,15.60
2018-09-15T04:00:01.905Z,15.60
2018-09-15T04:02:05.477Z,15.60
2018-09-15T04:04:09.250Z,15.50
2018-09-15T04:06:12.149Z,15.50
2018-09-15T04:08:15.028Z,15.50
2018-09-15T04:10:17.917Z,15.50
2018-09-15T04:12:20.953Z,15.50
2018-09-15T04:14:23.859Z,15.50
2018-09-15T04:16:27.510Z,15.40
2018-09-15T04:18:30.401Z,15.40
2018-09-15T04:20:33.386Z,15.40
2018-09-15T04:22:37.045Z,15.40
2018-09-15T04:24:40.906Z,15.30
2018-09-15T04:26:44.561Z,15.30
2018-09-15T04:28:47.446Z,15.30
2018-09-15T04:30:50.356Z,15.30
2018-09-15T04:32:54.011Z,15.30
2018-09-15T04:34:56.938Z,15.30
2018-09-15T04:37:00.634Z,15.30
2018-09-15T04:39:04.337Z,15.20
2018-09-15T04:41:07.230Z,15.20
2018-09-15T04:43:11.005Z,15.20
2018-09-15T04:45:13.965Z,15.20
2018-09-15T04:47:16.846Z,15.20
2018-09-15T04:49:19.772Z,15.20
2018-09-15T04:51:23.425Z,15.10
2018-09-15T04:53:26.398Z,15.10
2018-09-15T04:55:29.276Z,15.10
2018-09-15T04:57:32.177Z,15.10
2018-09-15T04:59:35.090Z,15.10
2018-09-15T05:01:38.748Z,15.00
2018-09-15T05:03:41.629Z,15.00
2018-09-15T05:05:44.513Z,14.90
2018-09-15T05:07:47.434Z,14.90
2018-09-15T05:09:50.326Z,14.90
2018-09-15T05:11:54.004Z,14.90
2018-09-15T05:13:56.885Z,14.80
2018-09-15T05:15:59.780Z,14.80
2018-09-15T05:18:03.574Z,14.80
2018-09-15T05:20:06.550Z,14.80
2018-09-15T05:22:09.429Z,14.80
2018-09-15T05:24:12.328Z,14.80
2018-09-15T05:26:16.025Z,14.70
2018-09-15T05:28:19.712Z,14.80
2018-09-15T05:30:23.414Z,14.70
2018-09-15T05:32:26.317Z,14.70
2018-09-15T05:34:29.973Z,14.70
2018-09-15T05:36:32.834Z,14.70
2018-09-15T05:38:35.725Z,14.70
2018-09-15T05:40:38.632Z,14.70
2018-09-15T05:42:41.521Z,14.70
2018-09-15T05:44:44.389Z,14.70
2018-09-15T05:46:47.344Z,14.70
2018-09-15T05:48:50.230Z,14.70
2018-09-15T05:50:53.111Z,14.70
2018-09-15T05:52:56.129Z,14.80
2018-09-15T05:54:59.825Z,14.80
2018-09-15T05:57:03.521Z,14.80
2018-09-15T05:59:06.917Z,14.80
2018-09-15T06:01:09.801Z,14.80
2018-09-15T06:03:12.734Z,14.80
2018-09-15T06:05:15.619Z,14.80
2018-09-15T06:07:18.476Z,14.90
2018-09-15T06:09:21.385Z,14.90
2018-09-15T06:11:24.274Z,14.90
2018-09-15T06:13:27.148Z,14.90
2018-09-15T06:15:30.109Z,14.90
2018-09-15T06:17:33.018Z,15.00
2018-09-15T06:19:35.894Z,15.00
2018-09-15T06:21:38.800Z,15.00
2018-09-15T06:23:41.671Z,15.10
2018-09-15T06:25:44.590Z,15.10
2018-09-15T06:27:48.266Z,15.20
2018-09-15T06:29:51.129Z,15.20
2018-09-15T06:31:54.129Z,15.20
2018-09-15T06:33:57.016Z,15.30
2018-09-15T06:36:00.000Z,15.30
2018-09-15T06:38:03.693Z,15.40
2018-09-15T06:40:06.565Z,15.40
2018-09-15T06:42:10.870Z,15.50
2018-09-15T06:44:13.868Z,15.50
2018-09-15T06:46:16.890Z,15.60
2018-09-15T06:48:20.529Z,15.60
2018-09-15T06:50:23.441Z,15.60
2018-09-15T06:52:27.093Z,15.80
2018-09-15T06:54:29.974Z,15.80
2018-09-15T06:56:32.901Z,15.80
2018-09-15T06:58:36.593Z,15.90
2018-09-15T07:00:39.519Z,15.90
2018-09-15T07:02:42.365Z,16.00
2018-09-15T07:04:45.238Z,16.00
2018-09-15T07:06:48.130Z,16.10
2018-09-15T07:08:51.774Z,16.20
2018-09-15T07:10:54.705Z,16.20
2018-09-15T07:12:58.450Z,16.30
2018-09-15T07:15:01.274Z,16.30
2018-09-15T07:17:04.503Z,16.40
2018-09-15T07:19:08.129Z,16.40
2018-09-15T07:21:11.017Z,16.40
2018-09-15T07:23:13.936Z,16.50
2018-09-15T07:25:18.358Z,16.60
2018-09-15T07:27:22.001Z,16.70
2018-09-15T07:29:24.962Z,16.70
2018-09-15T07:31:28.626Z,16.80
2018-09-15T07:33:31.514Z,16.70
2018-09-15T07:35:34.409Z,16.80
2018-09-15T07:37:38.095Z,16.90
2018-09-15T07:39:41.037Z,16.90
2018-09-15T07:41:43.927Z,16.90
2018-09-15T07:43:46.800Z,17.00
2018-09-15T07:45:49.685Z,17.00
2018-09-15T07:47:52.599Z,17.10
2018-09-15T07:49:55.469Z,17.20
2018-09-15T07:51:59.998Z,17.20
2018-09-15T07:54:02.916Z,17.20
2018-09-15T07:56:05.862Z,17.30
2018-09-15T07:58:10.277Z,17.30
2018-09-15T08:00:14.677Z,17.40
2018-09-15T08:02:17.567Z,17.40
2018-09-15T08:04:20.469Z,17.40
2018-09-15T08:06:24.146Z,17.50
2018-09-15T08:08:27.171Z,17.50
2018-09-15T08:10:30.835Z,17.60
2018-09-15T08:12:33.730Z,17.60
2018-09-15T08:14:38.107Z,17.60
2018-09-15T08:16:41.025Z,17.60
2018-09-15T08:18:44.668Z,17.70
2018-09-15T08:20:47.670Z,17.70
2018-09-15T08:22:50.576Z,17.80
2018-09-15T08:24:54.967Z,17.80
2018-09-15T08:26:57.853Z,17.90
2018-09-15T08:29:00.824Z,17.90
2018-09-15T08:31:03.705Z,18.00
2018-09-15T08:33:06.727Z,18.00
2018-09-15T08:35:09.614Z,18.00
2018-09-15T08:37:12.554Z,18.10
2018-09-15T08:39:15.481Z,18.10
2018-09-15T08:41:19.171Z,18.20
2018-09-15T08:43:22.013Z,18.10
2018-09-15T08:45:24.907Z,18.20
2018-09-15T08:47:27.794Z,18.20
2018-09-15T08:49:30.697Z,18.20
2018-09-15T08:51:34.366Z,18.30
2018-09-15T08:53:37.247Z,18.30
2018-09-15T08:55:40.142Z,18.30
2018-09-15T08:57:43.147Z,18.40
2018-09-15T08:59:47.530Z,18.40
2018-09-15T09:01:50.436Z,18.40
2018-09-15T09:03:53.318Z,18.50
2018-09-15T09:05:56.188Z,18.50
2018-09-15T09:08:00.643Z,18.50
2018-09-15T09:10:04.278Z,18.60
2018-09-15T09:12:07.163Z,18.60
2018-09-15T09:14:10.079Z,18.60
2018-09-15T09:16:12.956Z,18.70
2018-09-15T09:18:15.910Z,18.70
2018-09-15T09:20:18.829Z,18.80
2018-09-15T09:22:22.485Z,18.90
2018-09-15T09:24:25.488Z,18.80
2018-09-15T09:26:28.546Z,18.90
2018-09-15T09:28:32.184Z,19.00
2018-09-15T09:30:36.573Z,19.00
2018-09-15T09:32:39.578Z,19.00
2018-09-15T09:34:42.441Z,19.00
2018-09-15T09:36:45.543Z,19.00
2018-09-15T09:38:48.462Z,19.10
2018-09-15T09:40:51.413Z,19.10
2018-09-15T09:42:55.820Z,19.20
2018-09-15T09:44:58.709Z,19.10
2018-09-15T09:47:03.084Z,19.20
2018-09-15T09:49:06.100Z,19.20
2018-09-15T09:51:08.984Z,19.30
2018-09-15T09:53:12.648Z,19.40
2018-09-15T09:55:15.571Z,19.40
2018-09-15T09:57:18.526Z,19.40
2018-09-15T09:59:21.421Z,19.40
2018-09-15T10:01:24.366Z,19.50
2018-09-15T10:03:28.705Z,19.50
2018-09-15T10:05:31.617Z,19.50
2018-09-15T10:07:34.497Z,19.60
2018-09-15T10:09:37.392Z,19.60
2018-09-15T10:11:40.285Z,19.60
2018-09-15T10:13:43.925Z,19.80
2018-09-15T10:15:46.887Z,19.70
2018-09-15T10:17:50.591Z,19.90
2018-09-15T10:19:53.525Z,19.80
2018-09-15T10:21:57.319Z,19.90
2018-09-15T10:24:01.722Z,20.00
2018-09-15T10:26:04.602Z,20.00
2018-09-15T10:28:07.592Z,20.00
2018-09-15T10:30:11.990Z,20.10
2018-09-15T10:32:14.965Z,20.10
2018-09-15T10:34:17.838Z,20.10
2018-09-15T10:36:20.722Z,20.20
2018-09-15T10:38:24.486Z,20.20
2018-09-15T10:40:27.430Z,20.20
2018-09-15T10:42:31.724Z,20.30
2018-09-15T10:44:34.626Z,20.30
2018-09-15T10:46:37.554Z,20.30
2018-09-15T10:48:41.210Z,20.40
2018-09-15T10:50:44.113Z,20.40
2018-09-15T10:52:48.195Z,20.40
2018-09-15T10:54:51.053Z,20.40
2018-09-15T10:56:53.961Z,20.40
2018-09-15T10:58:56.876Z,20.40
2018-09-15T11:00:59.829Z,20.40
2018-09-15T11:03:02.749Z,20.40
2018-09-15T11:05:06.373Z,20.50
2018-09-15T11:07:09.328Z,20.50
2018-09-15T11:09:12.960Z,20.50
2018-09-15T11:11:15.826Z,20.50
2018-09-15T11:13:18.746Z,20.50
2018-09-15T11:15:21.603Z,20.60
2018-09-15T11:17:24.481Z,20.60
2018-09-15T11:19:27.393Z,20.60
2018-09-15T11:21:30.278Z,20.60
2018-09-15T11:23:33.150Z,20.60
2018-09-15T11:25:36.049Z,20.70
2018-09-15T11:27:39.697Z,20.70
2018-09-15T11:29:43.405Z,20.80
2018-09-15T11:31:46.345Z,20.70
2018-09-15T11:33:49.982Z,20.80
2018-09-15T11:35:52.866Z,20.80
2018-09-15T11:37:55.783Z,20.80
2018-09-15T11:39:58.653Z,20.90
2018-09-15T11:42:03.085Z,20.90
2018-09-15T11:44:05.967Z,20.90
2018-09-15T11:46:08.943Z,21.00
2018-09-15T11:48:13.564Z,21.00
2018-09-15T11:50:16.540Z,21.00
2018-09-15T11:52:20.974Z,21.10
2018-09-15T11:54:23.947Z,21.10
2018-09-15T11:56:28.337Z,21.20
2018-09-15T11:58:31.250Z,21.20
2018-09-15T12:00:34.222Z,21.30
2018-09-15T12:02:37.105Z,21.30
2018-09-15T12:04:39.986Z,21.40
2018-09-15T12:06:43.062Z,21.50
2018-09-15T12:08:46.054Z,21.60
2018-09-15T12:10:48.923Z,21.60
2018-09-15T12:12:51.841Z,21.70
2018-09-15T12:14:55.508Z,21.90
2018-09-15T12:16:58.609Z,21.80
2018-09-15T12:19:01.489Z,21.90
2018-09-15T12:21:05.178Z,22.10
2018-09-15T12:23:08.069Z,22.10
2018-09-15T12:25:10.945Z,22.20
2018-09-15T12:27:14.641Z,22.40
2018-09-15T12:29:17.581Z,22.30
2018-09-15T12:31:20.469Z,22.40
2018-09-15T12:33:23.359Z,22.50
2018-09-15T12:35:26.447Z,22.50
2018-09-15T12:37:29.344Z,22.60
2018-09-15T12:39:33.970Z,22.60
2018-09-15T12:41:38.262Z,22.50
2018-09-15T12:43:41.164Z,22.50
2018-09-15T12:45:44.087Z,22.50
2018-09-15T12:47:47.748Z,22.40
2018-09-15T12:49:50.730Z,22.40
2018-09-15T12:51:53.739Z,22.40
2018-09-15T12:53:56.604Z,22.40
2018-09-15T12:55:59.453Z,22.40
2018-09-15T12:58:02.429Z,22.40
2018-09-15T13:00:05.306Z,22.40
2018-09-15T13:02:08.176Z,22.40
2018-09-15T13:04:11.105Z,22.40
2018-09-15T13:06:14.001Z,22.40
2018-09-15T13:08:16.963Z,22.40
2018-09-15T13:10:20.049Z,22.50
2018-09-15T13:12:24.421Z,22.50
2018-09-15T13:14:27.345Z,22.50
2018-09-15T13:16:31.852Z,22.60
2018-09-15T13:18:34.752Z,22.60
2018-09-15T13:20:37.730Z,22.60
2018-09-15T13:22:40.713Z,22.70
2018-09-15T13:24:43.590Z,22.80
2018-09-15T13:26:46.484Z,22.90
2018-09-15T13:28:49.456Z,22.90
2018-09-15T13:30:52.419Z,23.00
2018-09-15T13:32:55.293Z,23.10
2018-09-15T13:34:58.206Z,23.20
2018-09-15T13:37:01.901Z,23.30
2018-09-15T13:39:04.821Z,23.30
2018-09-15T13:41:08.478Z,23.40
2018-09-15T13:43:11.357Z,23.40
2018-09-15T13:45:14.233Z,23.40
2018-09-15T13:47:17.334Z,23.40
2018-09-15T13:49:20.198Z,23.40
2018-09-15T13:51:23.096Z,23.40
2018-09-15T13:53:26.136Z,23.40
2018-09-15T13:55:28.930Z,23.40
2018-09-15T13:57:31.818Z,23.40
2018-09-15T13:59:34.733Z,23.30
2018-09-15T14:01:38.381Z,23.40
2018-09-15T14:03:41.299Z,23.40
2018-09-15T14:05:44.278Z,23.50
2018-09-15T14:07:47.165Z,23.60
2018-09-15T14:09:50.865Z,23.70
2018-09-15T14:11:54.577Z,23.80
2018-09-15T14:13:58.229Z,23.80
2018-09-15T14:16:01.128Z,23.80
2018-09-15T14:18:04.041Z,23.80
2018-09-15T14:20:07.009Z,23.70
2018-09-15T14:22:11.417Z,23.60
2018-09-15T14:24:14.301Z,23.60
2018-09-15T14:26:17.163Z,23.50
2018-09-15T14:28:20.058Z,23.50
2018-09-15T14:30:23.077Z,23.60
2018-09-15T14:32:26.717Z,23.40
2018-09-15T14:34:29.594Z,23.40
2018-09-15T14:36:32.480Z,23.40
2018-09-15T14:38:35.376Z,23.40
2018-09-15T14:40:38.304Z,23.40
2018-09-15T14:42:41.259Z,23.30
2018-09-15T14:44:44.164Z,23.30
2018-09-15T14:46:47.809Z,23.30
2018-09-15T14:48:50.817Z,23.30
2018-09-15T14:50:53.686Z,23.30
2018-09-15T14:52:56.558Z,23.30
2018-09-15T14:54:59.652Z,23.30
2018-09-15T14:57:02.550Z,23.30
2018-09-15T14:59:06.197Z,23.30
2018-09-15T15:01:09.261Z,23.20
2018-09-15T15:03:12.138Z,23.20
2018-09-15T15:05:15.789Z,23.20
2018-09-15T15:07:18.885Z,23.20
2018-09-15T15:09:21.769Z,23.20
2018-09-15T15:11:24.645Z,23.20
2018-09-15T15:13:27.630Z,23.20
2018-09-15T15:15:30.509Z,23.20
2018-09-15T15:17:33.390Z,23.20
2018-09-15T15:19:36.570Z,23.10
2018-09-15T15:21:40.170Z,23.10
2018-09-15T15:23:43.200Z,23.10
2018-09-15T15:25:46.222Z,23.10
2018-09-15T15:27:49.810Z,23.00
2018-09-15T15:29:52.686Z,23.00
2018-09-15T15:31:55.569Z,23.00
2018-09-15T15:33:58.441Z,23.00
2018-09-15T15:36:01.370Z,23.00
2018-09-15T15:38:04.453Z,23.00
2018-09-15T15:40:07.333Z,23.00
2018-09-15T15:42:10.261Z,23.00
2018-09-15T15:44:13.098Z,23.00
2018-09-15T15:46:15.964Z,23.00
2018-09-15T15:48:18.835Z,23.00
2018-09-15T15:50:22.561Z,23.00
2018-09-15T15:52:25.430Z,23.00
2018-09-15T15:54:28.302Z,23.00
2018-09-15T15:56:31.297Z,23.00
2018-09-15T15:58:34.204Z,23.10
2018-09-15T16:00:37.071Z,23.10
2018-09-15T16:02:39.985Z,23.10
2018-09-15T16:04:42.960Z,23.10
2018-09-15T16:06:46.625Z,23.20
2018-09-15T16:08:49.747Z,23.10
2018-09-15T16:10:53.413Z,23.20
2018-09-15T16:12:56.396Z,23.10
2018-09-15T16:14:59.298Z,23.10
2018-09-15T16:17:03.006Z,23.20
2018-09-15T16:19:05.844Z,23.10
2018-09-15T16:21:08.744Z,23.20
2018-09-15T16:23:13.137Z,23.20
2018-09-15T16:25:16.017Z,23.10
2018-09-15T16:27:18.937Z,23.20
2018-09-15T16:29:22.648Z,23.10
2018-09-15T16:31:25.609Z,23.10
2018-09-15T16:33:29.280Z,23.10
2018-09-15T16:35:32.144Z,23.10
2018-09-15T16:37:35.093Z,23.10
2018-09-15T16:39:38.041Z,23.10
2018-09-15T16:41:41.025Z,23.10
2018-09-15T16:43:43.886Z,23.00
2018-09-15T16:45:46.777Z,23.00
2018-09-15T16:47:49.667Z,23.00
2018-09-15T16:49:52.674Z,23.00
2018-09-15T16:51:56.349Z,23.00
2018-09-15T16:53:59.208Z,23.00
2018-09-15T16:56:02.082Z,23.00
2018-09-15T16:58:05.128Z,22.90
2018-09-15T17:00:08.765Z,22.90
2018-09-15T17:02:11.641Z,22.90
2018-09-15T17:04:14.534Z,22.90
2018-09-15T17:06:17.431Z,22.90
2018-09-15T17:08:20.298Z,22.80
2018-09-15T17:10:23.401Z,22.80
2018-09-15T17:12:26.281Z,22.80
2018-09-15T17:14:29.158Z,22.80
2018-09-15T17:16:32.155Z,22.80
2018-09-15T17:18:35.708Z,22.70
2018-09-15T17:20:38.631Z,22.60
2018-09-15T17:22:41.543Z,22.60
2018-09-15T17:24:45.203Z,22.50
2018-09-15T17:26:48.099Z,22.50
2018-09-15T17:28:51.008Z,22.50
2018-09-15T17:30:55.465Z,22.40
2018-09-15T17:32:58.340Z,22.40
2018-09-15T17:35:01.233Z,22.40
2018-09-15T17:37:04.186Z,22.30
2018-09-15T17:39:06.985Z,22.30
2018-09-15T17:41:09.909Z,22.20
2018-09-15T17:43:13.575Z,22.10
2018-09-15T17:45:16.550Z,22.10
2018-09-15T17:47:20.225Z,22.00
2018-09-15T17:49:23.868Z,22.00
2018-09-15T17:51:26.849Z,22.00
2018-09-15T17:53:29.736Z,21.90
2018-09-15T17:55:32.709Z,21.80
2018-09-15T17:57:35.581Z,21.80
2018-09-15T17:59:38.885Z,21.70
2018-09-15T18:01:43.281Z,21.60
2018-09-15T18:03:46.179Z,21.60
2018-09-15T18:05:49.832Z,21.60
2018-09-15T18:07:52.710Z,21.50
2018-09-15T18:09:55.697Z,21.40
2018-09-15T18:11:59.447Z,21.30
2018-09-15T18:14:03.949Z,21.30
2018-09-15T18:16:06.830Z,21.30
2018-09-15T18:18:09.937Z,21.20
2018-09-15T18:20:12.832Z,21.20
2018-09-15T18:22:15.699Z,21.10
2018-09-15T18:24:18.813Z,21.10
2018-09-15T18:26:22.491Z,20.90
2018-09-15T18:28:26.265Z,20.90
2018-09-15T18:30:29.270Z,20.90
2018-09-15T18:32:32.141Z,20.80
2018-09-15T18:34:36.569Z,20.70
2018-09-15T18:36:40.439Z,20.70
2018-09-15T18:38:43.129Z,20.70
2018-09-15T18:40:46.003Z,20.60
2018-09-15T18:42:49.013Z,20.60
2018-09-15T18:44:53.389Z,20.50
2018-09-15T18:46:56.269Z,20.50
2018-09-15T18:48:59.184Z,20.40
2018-09-15T18:51:02.061Z,20.40
2018-09-15T18:53:05.001Z,20.30
2018-09-15T18:55:07.898Z,20.20
2018-09-15T18:57:10.803Z,20.20
2018-09-15T18:59:15.210Z,20.10
2018-09-15T19:01:18.086Z,20.10
2018-09-15T19:03:21.002Z,20.00
2018-09-15T19:05:23.881Z,20.00
2018-09-15T19:07:28.381Z,19.90
2018-09-15T19:09:31.299Z,19.90
2018-09-15T19:11:34.972Z,19.80
2018-09-15T19:13:38.662Z,19.80
2018-09-15T19:15:41.562Z,19.80
2018-09-15T19:17:46.003Z,19.70
2018-09-15T19:19:49.781Z,19.60
2018-09-15T19:21:53.499Z,19.60
2018-09-15T19:23:57.124Z,19.50
2018-09-15T19:26:00.046Z,19.60
2018-09-15T19:28:03.041Z,19.50
2018-09-15T19:30:06.682Z,19.40
2018-09-15T19:32:09.572Z,19.40
2018-09-15T19:34:12.499Z,19.40
2018-09-15T19:36:16.928Z,19.30
2018-09-15T19:38:19.985Z,19.30
2018-09-15T19:40:22.907Z,19.30
2018-09-15T19:42:26.545Z,19.20
2018-09-15T19:44:29.449Z,19.20
2018-09-15T19:46:32.336Z,19.20
2018-09-15T19:48:36.726Z,19.00
2018-09-15T19:50:39.741Z,19.00
2018-09-15T19:52:42.617Z,19.00
2018-09-15T19:54:46.997Z,18.90
2018-09-15T19:56:49.894Z,18.90
2018-09-15T19:58:52.777Z,18.90
2018-09-15T20:00:55.653Z,18.90
2018-09-15T20:02:58.650Z,18.80
2018-09-15T20:05:01.549Z,18.80
2018-09-15T20:07:04.433Z,18.70
2018-09-15T20:09:08.766Z,18.70
2018-09-15T20:11:12.393Z,18.70
2018-09-15T20:13:15.328Z,18.70
2018-09-15T20:15:19.006Z,18.60
2018-09-15T20:17:21.401Z,18.60
2018-09-15T20:19:24.546Z,18.50
2018-09-15T20:21:26.989Z,18.50
2018-09-15T20:23:29.934Z,18.50
2018-09-15T20:25:32.835Z,18.50
2018-09-15T20:27:36.617Z,18.40
2018-09-15T20:29:39.477Z,18.40
2018-09-15T20:31:43.866Z,18.30
2018-09-15T20:33:46.764Z,18.30
2018-09-15T20:35:49.661Z,18.30
2018-09-15T20:37:52.561Z,18.30
2018-09-15T20:39:55.541Z,18.30
2018-09-15T20:41:59.329Z,18.20
2018-09-15T20:44:02.238Z,18.20
2018-09-15T20:46:05.925Z,18.20
2018-09-15T20:48:09.736Z,18.20
2018-09-15T20:50:13.377Z,18.20
2018-09-15T20:52:16.289Z,18.20
2018-09-15T20:54:19.259Z,18.20
2018-09-15T20:56:22.173Z,18.20
2018-09-15T20:58:26.562Z,18.10
2018-09-15T21:00:29.446Z,18.10
2018-09-15T21:02:32.321Z,18.10
2018-09-15T21:04:35.229Z,18.10
2018-09-15T21:06:38.897Z,18.00
2018-09-15T21:08:41.762Z,18.00
2018-09-15T21:10:44.661Z,18.00
2018-09-15T21:12:47.534Z,18.00
2018-09-15T21:14:50.541Z,18.00
2018-09-15T21:16:53.428Z,18.00
2018-09-15T21:18:56.301Z,18.00
2018-09-15T21:20:59.178Z,18.00
2018-09-15T21:23:02.102Z,18.00
2018-09-15T21:25:05.079Z,18.00
2018-09-15T21:27:07.936Z,18.00
2018-09-15T21:29:10.842Z,17.90
2018-09-15T21:31:14.504Z,17.90
2018-09-15T21:33:17.397Z,17.90
2018-09-15T21:35:20.323Z,17.90
2018-09-15T21:37:23.198Z,17.90
2018-09-15T21:39:26.074Z,17.90
2018-09-15T21:41:29.129Z,17.90
2018-09-15T21:43:33.503Z,17.90
2018-09-15T21:45:36.377Z,17.90
2018-09-15T21:47:39.277Z,17.90
2018-09-15T21:49:42.160Z,17.90
2018-09-15T21:51:45.031Z,17.80
2018-09-15T21:53:47.934Z,17.80
2018-09-15T21:55:52.357Z,17.80
2018-09-15T21:57:56.011Z,17.80
2018-09-15T21:59:58.914Z,17.80
2018-09-15T22:02:01.946Z,17.80
2018-09-15T22:04:05.561Z,17.80
2018-09-15T22:06:08.476Z,17.70
2018-09-15T22:08:11.352Z,17.70
2018-09-15T22:10:14.257Z,17.70
2018-09-15T22:12:17.284Z,17.70
2018-09-15T22:14:20.936Z,17.60
2018-09-15T22:16:24.272Z,17.60
2018-09-15T22:18:27.629Z,17.60
2018-09-15T22:20:32.006Z,17.60
2018-09-15T22:22:34.918Z,17.50
2018-09-15T22:24:37.797Z,17.50
2018-09-15T22:26:40.670Z,17.50
2018-09-15T22:28:43.526Z,17.50
2018-09-15T22:30:46.432Z,17.50
2018-09-15T22:32:49.324Z,17.50
2018-09-15T22:34:53.709Z,17.40
2018-09-15T22:36:56.722Z,17.40
2018-09-15T22:38:59.645Z,17.40
2018-09-15T22:41:03.265Z,17.40
2018-09-15T22:43:06.159Z,17.30
2018-09-15T22:45:09.032Z,17.30
2018-09-15T22:47:11.917Z,17.30
2018-09-15T22:49:14.967Z,17.30
2018-09-15T22:51:18.637Z,17.30
2018-09-15T22:53:22.281Z,17.30
2018-09-15T22:55:25.243Z,17.30
2018-09-15T22:57:28.996Z,17.20
2018-09-15T22:59:31.880Z,17.20
2018-09-15T23:01:34.901Z,17.30
2018-09-15T23:03:38.533Z,17.20
2018-09-15T23:05:41.447Z,17.20
2018-09-15T23:07:44.451Z,17.20
2018-09-15T23:09:47.309Z,17.20
2018-09-15T23:11:50.222Z,17.20
2018-09-15T23:13:54.955Z,17.10
2018-09-15T23:15:58.581Z,17.10
2018-09-15T23:18:01.461Z,17.10
2018-09-15T23:20:04.387Z,17.10
2018-09-15T23:22:07.245Z,17.10
2018-09-15T23:24:10.162Z,17.10
2018-09-15T23:26:13.943Z,17.10
2018-09-15T23:28:16.912Z,17.10
2018-09-15T23:30:19.801Z,17.10
2018-09-15T23:32:22.693Z,17.10
2018-09-15T23:34:25.578Z,17.10
2018-09-15T23:36:28.490Z,17.00
2018-09-15T23:38:32.148Z,17.10
2018-09-15T23:40:35.834Z,17.10
2018-09-15T23:42:38.729Z,17.00
2018-09-15T23:44:43.153Z,17.10
2018-09-15T23:46:46.057Z,17.10
2018-09-15T23:48:49.736Z,17.10
2018-09-15T23:50:52.713Z,17.10
2018-09-15T23:52:55.580Z,17.10
2018-09-15T23:54:58.524Z,17.10
2018-09-15T23:57:02.164Z,17.10
2018-09-15T23:59:06.557Z,17.10
